Time;durP1;ratioP1;P1;durP2;ratioP2;P2;SDS_P1;SDS_P2;PMS_P1;PMS_P2;Temp;Humidity;BMP_temperature;BMP_pressure;BME280_temperature;BME280_humidity;BME280_pressure;Samples;Min_cycle;Max_cycle;Signal;HPM_P1;HPM_P2
2021/09/28 00:02:12;;;;;;;19.75;7.18;;;13.40;99.40;;;;;;5021306;28;20022;-67
2021/09/28 00:04:38;;;;;;;19.60;7.43;;;13.30;99.30;;;;;;5016196;28;20113;-65
2021/09/28 00:07:04;;;;;;;19.42;7.80;;;13.20;99.30;;;;;;5029189;28;20044;-67
2021/09/28 00:09:29;;;;;;;17.73;7.38;;;13.30;99.40;;;;;;5027405;28;20601;-67
2021/09/28 00:11:55;;;;;;;18.70;7.85;;;13.20;99.40;;;;;;5024429;28;20061;-67
2021/09/28 00:14:22;;;;;;;22.88;8.32;;;13.20;99.40;;;;;;5027441;28;20057;-67
2021/09/28 00:16:47;;;;;;;23.67;7.78;;;13.10;99.40;;;;;;5033203;28;20106;-66
2021/09/28 00:19:13;;;;;;;19.50;7.45;;;13.10;99.40;;;;;;5036356;28;20072;-66
2021/09/28 00:21:39;;;;;;;14.52;7.28;;;13.00;99.40;;;;;;5029154;28;20025;-65
2021/09/28 00:24:05;;;;;;;21.42;8.80;;;13.00;99.40;;;;;;5025871;28;20024;-66
2021/09/28 00:26:30;;;;;;;21.70;8.27;;;12.90;99.40;;;;;;5023044;28;20406;-67
2021/09/28 00:28:56;;;;;;;24.48;7.95;;;12.90;99.50;;;;;;5025208;28;20134;-67
2021/09/28 00:31:22;;;;;;;21.00;8.18;;;12.90;99.50;;;;;;5026925;28;20487;-65
2021/09/28 00:33:47;;;;;;;24.35;8.68;;;12.90;99.60;;;;;;5022904;28;20037;-67
2021/09/28 00:36:13;;;;;;;19.92;8.23;;;12.90;99.60;;;;;;5031035;28;20040;-67
2021/09/28 00:38:38;;;;;;;19.23;8.07;;;12.90;99.60;;;;;;5037662;28;20260;-66
2021/09/28 00:41:04;;;;;;;26.70;7.82;;;12.90;99.60;;;;;;5025434;28;20049;-65
2021/09/28 00:43:53;;;;;;;23.15;8.40;;;12.80;99.50;;;;;;5024354;28;20064;-65
2021/09/28 00:46:21;;;;;;;28.95;8.68;;;12.80;99.70;;;;;;5022229;28;20021;-66
2021/09/28 00:48:47;;;;;;;23.80;8.27;;;12.80;99.60;;;;;;5031173;28;20408;-67
2021/09/28 00:51:14;;;;;;;25.08;8.15;;;12.60;99.50;;;;;;5023293;28;20033;-67
2021/09/28 00:53:43;;;;;;;22.80;7.25;;;12.60;99.60;;;;;;5025545;28;20413;-67
2021/09/28 00:56:10;;;;;;;21.15;8.10;;;12.60;99.60;;;;;;5027280;28;20115;-67
2021/09/28 00:58:38;;;;;;;19.45;7.25;;;12.60;99.60;;;;;;5014738;28;20551;-66
2021/09/28 01:01:04;;;;;;;25.65;7.82;;;12.60;99.70;;;;;;5019059;28;20264;-67
2021/09/28 01:03:33;;;;;;;18.23;7.95;;;12.60;99.70;;;;;;5019702;28;20022;-67
2021/09/28 01:05:59;;;;;;;24.85;7.90;;;12.60;99.70;;;;;;5023793;28;20025;-66
2021/09/28 01:08:26;;;;;;;17.67;7.68;;;12.60;99.70;;;;;;5025224;28;20045;-67
2021/09/28 01:10:52;;;;;;;35.08;7.97;;;12.50;99.70;;;;;;5027080;28;20506;-67
2021/09/28 01:13:18;;;;;;;24.85;7.78;;;12.50;99.70;;;;;;5020349;28;20032;-67
2021/09/28 01:15:58;;;;;;;30.65;8.63;;;12.50;99.80;;;;;;5036806;28;20112;-67
2021/09/28 01:18:25;;;;;;;24.98;8.02;;;12.40;99.70;;;;;;5028646;28;20044;-67
2021/09/28 01:20:52;;;;;;;29.00;8.18;;;12.40;99.70;;;;;;5025644;28;20033;-64
2021/09/28 01:23:17;;;;;;;27.30;8.15;;;12.30;99.70;;;;;;5022021;28;20475;-66
2021/09/28 01:25:43;;;;;;;31.67;7.90;;;12.20;99.70;;;;;;5023257;28;20100;-66
2021/09/28 01:28:09;;;;;;;22.98;7.32;;;12.10;99.70;;;;;;5018768;28;20017;-67
2021/09/28 01:30:34;;;;;;;29.15;8.02;;;12.10;99.70;;;;;;5028759;28;20044;-67
2021/09/28 01:33:01;;;;;;;25.23;7.78;;;12.10;99.80;;;;;;5030175;28;20456;-67
2021/09/28 01:35:27;;;;;;;26.85;7.80;;;12.10;99.80;;;;;;5032059;28;20047;-67
2021/09/28 01:37:52;;;;;;;27.02;7.57;;;12.00;99.80;;;;;;5023644;28;20618;-67
2021/09/28 01:40:18;;;;;;;17.30;8.18;;;12.00;99.80;;;;;;5030663;28;20044;-66
2021/09/28 01:42:44;;;;;;;24.27;8.38;;;12.00;99.80;;;;;;5027493;28;20403;-66
2021/09/28 01:45:10;;;;;;;23.52;8.20;;;12.00;99.90;;;;;;5022466;28;20036;-66
2021/09/28 01:47:35;;;;;;;26.35;8.32;;;11.90;99.80;;;;;;5022225;28;20059;-65
2021/09/28 01:50:01;;;;;;;24.60;8.43;;;11.80;99.80;;;;;;5029304;28;20168;-67
2021/09/28 01:52:27;;;;;;;23.33;7.80;;;11.80;99.90;;;;;;5023519;28;20079;-66
2021/09/28 01:54:52;;;;;;;27.30;7.85;;;11.80;99.90;;;;;;5022686;28;20107;-65
2021/09/28 01:57:18;;;;;;;25.23;7.57;;;11.80;99.90;;;;;;5017810;28;20047;-67
2021/09/28 01:59:43;;;;;;;22.70;7.82;;;11.80;99.90;;;;;;5027987;28;20254;-64
2021/09/28 02:02:09;;;;;;;24.27;7.97;;;11.90;99.90;;;;;;5024713;28;20109;-67
2021/09/28 02:04:34;;;;;;;25.83;8.05;;;11.90;99.90;;;;;;5025166;28;20029;-66
2021/09/28 02:07:00;;;;;;;27.42;8.50;;;11.90;99.90;;;;;;5023972;28;20303;-65
2021/09/28 02:09:26;;;;;;;25.25;8.23;;;11.90;99.90;;;;;;5030171;28;20048;-66
2021/09/28 02:11:51;;;;;;;23.55;8.40;;;11.90;99.90;;;;;;5034699;28;20685;-66
2021/09/28 02:14:17;;;;;;;32.22;8.82;;;11.80;99.90;;;;;;5021985;28;20084;-68
2021/09/28 02:16:45;;;;;;;22.90;9.15;;;11.80;99.90;;;;;;5025308;28;20030;-67
2021/09/28 02:19:12;;;;;;;28.80;9.48;;;11.70;99.90;;;;;;5024690;28;20033;-67
2021/09/28 02:21:38;;;;;;;30.92;9.23;;;11.60;99.90;;;;;;5022148;28;20021;-67
2021/09/28 02:24:04;;;;;;;21.70;8.73;;;11.50;99.90;;;;;;5021305;28;20307;-67
2021/09/28 02:26:29;;;;;;;25.23;8.90;;;11.60;99.90;;;;;;5020486;28;20029;-66
2021/09/28 02:28:55;;;;;;;29.88;9.05;;;11.50;99.90;;;;;;5021869;28;20025;-67
2021/09/28 02:31:21;;;;;;;33.33;9.50;;;11.30;99.90;;;;;;5024405;28;20032;-66
2021/09/28 02:33:47;;;;;;;39.40;9.75;;;11.30;99.90;;;;;;5024069;28;20034;-66
2021/09/28 02:36:13;;;;;;;30.50;9.75;;;11.20;99.90;;;;;;5028985;28;20025;-65
2021/09/28 02:38:39;;;;;;;27.23;9.63;;;11.20;99.90;;;;;;5025389;28;20095;-67
2021/09/28 02:41:05;;;;;;;31.65;10.30;;;11.30;99.90;;;;;;5028070;28;20109;-67
2021/09/28 02:43:31;;;;;;;31.60;9.90;;;11.20;99.90;;;;;;5029100;28;20388;-67
2021/09/28 02:45:57;;;;;;;33.65;9.82;;;11.30;99.90;;;;;;5024361;28;20037;-66
2021/09/28 02:48:22;;;;;;;31.45;10.50;;;11.20;99.90;;;;;;5023634;28;20465;-67
2021/09/28 02:50:48;;;;;;;32.92;10.48;;;11.20;99.90;;;;;;5024637;28;20030;-67
2021/09/28 02:53:14;;;;;;;32.75;10.50;;;11.20;99.90;;;;;;5031946;28;20342;-67
2021/09/28 02:55:40;;;;;;;31.67;9.90;;;11.20;99.90;;;;;;5033575;28;20037;-66
2021/09/28 02:58:06;;;;;;;32.25;9.32;;;11.10;99.90;;;;;;5022602;28;20463;-67
2021/09/28 03:00:32;;;;;;;28.15;10.13;;;11.10;99.90;;;;;;5019908;28;20061;-67
2021/09/28 03:02:58;;;;;;;31.55;11.02;;;11.00;99.90;;;;;;5021323;28;20048;-66
2021/09/28 03:05:23;;;;;;;28.65;10.52;;;11.00;99.90;;;;;;5025027;28;20065;-65
2021/09/28 03:07:49;;;;;;;36.30;10.68;;;11.00;99.90;;;;;;5020273;28;20036;-66
2021/09/28 03:10:14;;;;;;;32.97;10.13;;;11.00;99.90;;;;;;5023891;28;20026;-67
2021/09/28 03:12:40;;;;;;;27.50;9.98;;;11.00;99.90;;;;;;5023835;28;20468;-67
2021/09/28 03:15:06;;;;;;;45.85;11.50;;;11.00;99.90;;;;;;5025428;28;20029;-65
2021/09/28 03:17:32;;;;;;;26.50;10.35;;;11.00;99.90;;;;;;5023096;28;20037;-65
2021/09/28 03:19:57;;;;;;;37.42;11.55;;;10.90;99.90;;;;;;5022738;28;20029;-67
2021/09/28 03:22:23;;;;;;;32.05;10.45;;;10.80;99.90;;;;;;5033503;28;20049;-65
2021/09/28 03:24:49;;;;;;;31.35;10.98;;;10.80;99.90;;;;;;5022117;28;20047;-65
2021/09/28 03:27:14;;;;;;;36.78;10.95;;;10.80;99.90;;;;;;5021343;28;20025;-67
2021/09/28 03:29:40;;;;;;;33.42;11.35;;;10.80;99.90;;;;;;5021902;28;20025;-67
2021/09/28 03:32:06;;;;;;;45.88;11.30;;;10.80;99.90;;;;;;5023050;28;20033;-66
2021/09/28 03:34:32;;;;;;;42.80;11.05;;;10.60;99.90;;;;;;5028941;28;20033;-66
2021/09/28 03:36:57;;;;;;;39.63;10.95;;;10.50;99.90;;;;;;5019649;28;20034;-65
2021/09/28 03:39:23;;;;;;;41.08;10.73;;;10.50;99.90;;;;;;5033584;28;20305;-67
2021/09/28 03:41:49;;;;;;;44.50;12.30;;;10.40;99.90;;;;;;5024736;28;20037;-67
2021/09/28 03:44:15;;;;;;;47.97;13.73;;;10.40;99.90;;;;;;5041751;28;20063;-67
2021/09/28 03:46:40;;;;;;;45.83;13.23;;;10.40;99.90;;;;;;5020573;28;20045;-65
2021/09/28 03:49:06;;;;;;;42.47;13.98;;;10.30;99.90;;;;;;5026850;28;20116;-67
2021/09/28 03:51:31;;;;;;;37.05;14.82;;;10.40;99.90;;;;;;5024818;28;20049;-67
2021/09/28 03:53:57;;;;;;;46.78;15.20;;;10.40;99.90;;;;;;5026466;28;20511;-67
2021/09/28 03:56:24;;;;;;;52.13;15.93;;;10.40;99.90;;;;;;5025120;28;20409;-65
2021/09/28 03:58:49;;;;;;;46.63;16.13;;;10.30;99.90;;;;;;5031725;28;20052;-67
2021/09/28 04:01:15;;;;;;;55.20;16.63;;;10.30;99.90;;;;;;5022212;28;20481;-64
2021/09/28 04:03:41;;;;;;;49.28;16.23;;;10.30;99.90;;;;;;5026691;28;20034;-67
2021/09/28 04:06:07;;;;;;;49.33;17.48;;;10.30;99.90;;;;;;5025555;28;20508;-67
2021/09/28 04:08:33;;;;;;;46.20;18.73;;;10.30;99.90;;;;;;5028338;28;20045;-67
2021/09/28 04:10:59;;;;;;;62.90;18.02;;;10.40;99.90;;;;;;5033486;28;20417;-67
2021/09/28 04:13:25;;;;;;;55.58;17.02;;;10.40;99.90;;;;;;5035210;28;20385;-67
2021/09/28 04:15:52;;;;;;;57.92;16.95;;;10.30;99.90;;;;;;5026689;28;20021;-67
2021/09/28 04:18:18;;;;;;;62.53;17.20;;;10.30;99.90;;;;;;5028325;28;20040;-67
2021/09/28 04:20:44;;;;;;;55.22;17.00;;;10.20;99.90;;;;;;5022708;28;20025;-63
2021/09/28 04:23:12;;;;;;;63.15;17.60;;;10.10;99.90;;;;;;5024127;28;20477;-64
2021/09/28 04:25:38;;;;;;;64.70;17.42;;;10.10;99.90;;;;;;5026165;28;20111;-64
2021/09/28 04:28:04;;;;;;;66.93;18.38;;;10.10;99.90;;;;;;5024539;28;20028;-64
2021/09/28 04:30:30;;;;;;;56.42;17.10;;;10.10;99.90;;;;;;5025090;28;20136;-62
2021/09/28 04:32:56;;;;;;;50.88;18.45;;;10.10;99.90;;;;;;5025569;28;20080;-63
2021/09/28 04:35:22;;;;;;;57.63;17.83;;;10.10;99.90;;;;;;5028053;28;20029;-63
2021/09/28 04:37:48;;;;;;;55.65;18.17;;;10.10;99.90;;;;;;5025854;28;20065;-63
2021/09/28 04:40:15;;;;;;;58.67;18.88;;;10.10;99.90;;;;;;5028174;28;20035;-63
2021/09/28 04:42:41;;;;;;;53.10;18.85;;;10.10;99.90;;;;;;5037085;28;20063;-63
2021/09/28 04:45:08;;;;;;;50.25;18.95;;;10.00;99.90;;;;;;5025083;28;20061;-64
2021/09/28 04:47:34;;;;;;;57.20;20.13;;;10.00;99.90;;;;;;5024191;28;20033;-64
2021/09/28 04:49:59;;;;;;;58.13;19.23;;;9.90;99.90;;;;;;5026097;28;20393;-64
2021/09/28 04:52:25;;;;;;;56.25;19.55;;;9.80;99.90;;;;;;5025989;28;20136;-64
2021/09/28 04:54:50;;;;;;;63.50;19.80;;;9.80;99.90;;;;;;5017240;28;20036;-65
2021/09/28 04:57:16;;;;;;;57.35;19.48;;;9.80;99.90;;;;;;5017555;28;20033;-62
2021/09/28 04:59:42;;;;;;;42.15;18.77;;;9.80;99.90;;;;;;5023105;28;20037;-63
2021/09/28 05:02:07;;;;;;;52.38;20.48;;;9.70;99.90;;;;;;5019790;28;20032;-61
2021/09/28 05:04:33;;;;;;;55.83;22.02;;;9.80;99.90;;;;;;5022234;28;20029;-62
2021/09/28 05:06:59;;;;;;;54.22;22.10;;;9.70;99.90;;;;;;5023455;28;20208;-63
2021/09/28 05:09:24;;;;;;;70.55;21.83;;;9.80;99.90;;;;;;5027329;28;20391;-63
2021/09/28 05:11:50;;;;;;;58.28;22.17;;;9.80;99.90;;;;;;5022801;28;20124;-62
2021/09/28 05:14:16;;;;;;;69.60;23.08;;;9.70;99.90;;;;;;5026201;28;20025;-64
2021/09/28 05:16:43;;;;;;;65.85;23.35;;;9.60;99.90;;;;;;5024961;28;20720;-61
2021/09/28 05:19:08;;;;;;;67.05;23.90;;;9.60;99.90;;;;;;5034968;28;20395;-63
2021/09/28 05:21:34;;;;;;;68.75;23.13;;;9.60;99.90;;;;;;5027981;28;20526;-64
2021/09/28 05:24:00;;;;;;;74.55;23.40;;;9.60;99.90;;;;;;5036476;28;20075;-63
2021/09/28 05:26:26;;;;;;;63.60;22.85;;;9.70;99.90;;;;;;5031445;28;20079;-63
2021/09/28 05:28:51;;;;;;;63.15;22.70;;;9.80;99.90;;;;;;5025761;28;20037;-63
2021/09/28 05:31:17;;;;;;;61.40;23.30;;;9.70;99.90;;;;;;5038337;28;20017;-63
2021/09/28 05:33:43;;;;;;;72.70;24.02;;;9.80;99.90;;;;;;5027898;28;20045;-64
2021/09/28 05:36:08;;;;;;;65.03;23.05;;;9.70;99.90;;;;;;5023929;28;20080;-64
2021/09/28 05:38:34;;;;;;;72.38;23.77;;;9.80;99.90;;;;;;5038283;28;20074;-62
2021/09/28 05:41:04;;;;;;;70.85;24.88;;;9.80;99.90;;;;;;5026630;28;20030;-63
2021/09/28 05:43:30;;;;;;;78.28;25.25;;;9.80;99.90;;;;;;5024106;28;20035;-64
2021/09/28 05:45:55;;;;;;;65.03;23.55;;;9.90;99.90;;;;;;5022958;28;20025;-63
2021/09/28 05:48:21;;;;;;;95.07;25.17;;;9.90;99.90;;;;;;5028499;28;20024;-64
2021/09/28 05:50:47;;;;;;;75.70;24.30;;;9.90;99.90;;;;;;5029955;28;20108;-64
2021/09/28 05:53:13;;;;;;;69.30;24.83;;;9.90;99.90;;;;;;5021917;28;20120;-64
2021/09/28 05:55:38;;;;;;;70.85;24.25;;;9.90;99.90;;;;;;5024828;28;20473;-64
2021/09/28 05:58:04;;;;;;;67.18;24.10;;;10.00;99.90;;;;;;5028448;28;20439;-64
2021/09/28 06:00:30;;;;;;;74.82;24.63;;;10.10;99.90;;;;;;5032896;28;20028;-63
2021/09/28 06:02:56;;;;;;;69.32;25.05;;;10.10;99.90;;;;;;5026451;28;20036;-63
2021/09/28 06:05:22;;;;;;;81.63;26.05;;;10.10;99.90;;;;;;5026294;28;20037;-64
2021/09/28 06:07:48;;;;;;;60.72;23.08;;;10.10;99.90;;;;;;5033027;28;20533;-62
2021/09/28 06:10:14;;;;;;;74.85;24.42;;;10.10;99.90;;;;;;5031513;28;20060;-63
2021/09/28 06:12:40;;;;;;;64.22;23.95;;;10.10;99.90;;;;;;5030623;28;20549;-63
2021/09/28 06:15:06;;;;;;;66.72;23.88;;;10.20;99.90;;;;;;5039436;28;20272;-64
2021/09/28 06:17:32;;;;;;;69.38;24.70;;;10.20;99.90;;;;;;5022630;28;20029;-63
2021/09/28 06:19:58;;;;;;;73.18;24.42;;;10.20;99.90;;;;;;5037848;28;20021;-64
2021/09/28 06:22:25;;;;;;;70.10;23.63;;;10.20;99.90;;;;;;5023620;28;20417;-63
2021/09/28 06:24:55;;;;;;;65.65;23.08;;;10.20;99.90;;;;;;5022225;28;20032;-64
2021/09/28 06:27:21;;;;;;;71.38;24.17;;;10.20;99.90;;;;;;5021237;28;20104;-64
2021/09/28 06:29:47;;;;;;;64.65;23.38;;;10.10;99.90;;;;;;5025307;28;20393;-62
2021/09/28 06:32:13;;;;;;;65.82;23.60;;;10.10;99.90;;;;;;5031116;28;20174;-63
2021/09/28 06:34:38;;;;;;;67.78;24.40;;;10.20;99.90;;;;;;5023718;28;20057;-64
2021/09/28 06:37:04;;;;;;;70.88;24.13;;;10.20;99.90;;;;;;5016228;28;20155;-64
2021/09/28 06:39:30;;;;;;;70.55;23.70;;;10.20;99.90;;;;;;5022798;28;20132;-64
2021/09/28 06:41:55;;;;;;;64.32;24.20;;;10.30;99.90;;;;;;5015658;28;20042;-64
2021/09/28 06:44:21;;;;;;;66.50;24.38;;;10.40;99.90;;;;;;5031292;28;20029;-64
2021/09/28 06:46:47;;;;;;;57.50;26.20;;;10.50;99.90;;;;;;5039231;28;20519;-64
2021/09/28 06:49:12;;;;;;;70.45;27.50;;;10.50;99.90;;;;;;5026715;28;20036;-64
2021/09/28 06:51:38;;;;;;;71.30;27.60;;;10.60;99.90;;;;;;5026362;28;20083;-65
2021/09/28 06:54:03;;;;;;;72.15;27.40;;;10.60;99.90;;;;;;5011669;28;20036;-64
2021/09/28 06:56:29;;;;;;;65.97;28.13;;;10.60;99.90;;;;;;5024462;28;20033;-64
2021/09/28 06:58:55;;;;;;;66.97;28.35;;;10.60;99.90;;;;;;5031736;28;20037;-64
2021/09/28 07:01:21;;;;;;;68.80;27.63;;;10.70;99.90;;;;;;5019012;28;20036;-64
2021/09/28 07:03:46;;;;;;;65.18;26.50;;;10.70;99.90;;;;;;5027854;28;20383;-65
2021/09/28 07:06:12;;;;;;;64.38;27.30;;;10.70;99.90;;;;;;5027394;28;20024;-64
2021/09/28 07:08:38;;;;;;;72.47;27.95;;;10.80;99.90;;;;;;5030438;28;20442;-64
2021/09/28 07:11:03;;;;;;;73.47;28.52;;;10.80;99.90;;;;;;5027555;28;20040;-64
2021/09/28 07:13:29;;;;;;;65.32;27.92;;;10.80;99.90;;;;;;5024391;28;20021;-64
2021/09/28 07:15:54;;;;;;;72.57;28.13;;;10.90;99.90;;;;;;5026065;28;20108;-65
2021/09/28 07:18:20;;;;;;;75.57;28.88;;;11.00;99.90;;;;;;5029941;28;20119;-63
2021/09/28 07:20:46;;;;;;;72.30;28.95;;;11.00;99.90;;;;;;5029502;28;20458;-64
2021/09/28 07:23:13;;;;;;;66.40;29.75;;;11.10;99.90;;;;;;5025137;28;20056;-63
2021/09/28 07:25:39;;;;;;;68.30;29.13;;;11.20;99.90;;;;;;5036558;28;20148;-64
2021/09/28 07:28:05;;;;;;;66.57;28.85;;;11.30;99.90;;;;;;5026989;28;20546;-64
2021/09/28 07:30:33;;;;;;;68.30;30.60;;;11.30;99.90;;;;;;5037161;28;20437;-64
2021/09/28 07:33:00;;;;;;;63.72;30.02;;;11.30;99.90;;;;;;5026036;28;20443;-64
2021/09/28 07:35:26;;;;;;;67.00;29.33;;;11.50;99.90;;;;;;5028835;28;20517;-64
2021/09/28 07:37:52;;;;;;;77.20;32.55;;;11.50;99.90;;;;;;5023526;28;20048;-64
2021/09/28 07:40:19;;;;;;;63.03;29.98;;;11.50;99.90;;;;;;5028174;28;20033;-64
2021/09/28 07:42:46;;;;;;;64.78;30.83;;;11.40;99.90;;;;;;5028354;28;20159;-64
2021/09/28 07:45:12;;;;;;;77.15;31.00;;;11.50;99.90;;;;;;5027466;28;20100;-64
2021/09/28 07:47:38;;;;;;;62.35;28.95;;;11.50;99.90;;;;;;5018108;28;20083;-62
2021/09/28 07:50:04;;;;;;;63.25;31.48;;;11.70;99.90;;;;;;5028119;28;20037;-63
2021/09/28 07:52:30;;;;;;;70.22;31.48;;;11.80;99.90;;;;;;5023933;28;20029;-63
2021/09/28 07:54:56;;;;;;;67.13;30.90;;;11.90;99.90;;;;;;5024441;28;20021;-63
2021/09/28 07:57:21;;;;;;;66.35;32.20;;;11.90;99.90;;;;;;5022124;28;20507;-63
2021/09/28 07:59:47;;;;;;;68.70;30.77;;;12.00;99.90;;;;;;5030568;28;20040;-63
2021/09/28 08:02:13;;;;;;;66.45;31.73;;;12.10;99.80;;;;;;5024316;28;20042;-64
2021/09/28 08:04:40;;;;;;;76.68;33.85;;;12.20;99.70;;;;;;5025762;28;20554;-64
2021/09/28 08:07:12;;;;;;;72.07;33.60;;;12.50;99.80;;;;;;5025423;28;20404;-64
2021/09/28 08:09:38;;;;;;;74.50;33.17;;;12.60;99.40;;;;;;5041508;28;20040;-63
2021/09/28 08:12:05;;;;;;;68.63;33.78;;;12.70;99.40;;;;;;5025661;28;20124;-63
2021/09/28 08:14:30;;;;;;;70.20;31.55;;;12.80;98.80;;;;;;5024982;28;20037;-64
2021/09/28 08:16:56;;;;;;;62.80;31.75;;;13.00;98.70;;;;;;5022258;28;20029;-62
2021/09/28 08:19:22;;;;;;;62.28;31.33;;;13.20;98.00;;;;;;5021795;28;20064;-64
2021/09/28 08:21:47;;;;;;;58.60;28.15;;;13.30;97.70;;;;;;5023853;28;20168;-64
2021/09/28 08:24:13;;;;;;;55.78;26.88;;;13.40;96.90;;;;;;5025191;28;20420;-64
2021/09/28 08:29:24;;;;;;;54.08;26.08;;;13.60;96.10;;;;;;5025202;28;20084;-64
2021/09/28 08:31:51;;;;;;;53.67;23.73;;;13.90;96.60;;;;;;5024679;28;20025;-64
2021/09/28 08:34:17;;;;;;;41.03;21.52;;;14.00;95.80;;;;;;5021784;28;20109;-64
2021/09/28 08:36:43;;;;;;;39.08;19.90;;;14.10;94.90;;;;;;5019047;28;20288;-65
2021/09/28 08:39:17;;;;;;;43.15;19.45;;;14.10;94.50;;;;;;5026022;28;20377;-64
2021/09/28 08:41:48;;;;;;;31.48;17.88;;;14.30;94.70;;;;;;5024254;28;20025;-64
2021/09/28 08:44:15;;;;;;;29.02;15.18;;;14.40;94.60;;;;;;5024790;28;20023;-64
2021/09/28 08:46:45;;;;;;;22.17;13.43;;;14.60;94.40;;;;;;5025668;28;20048;-64
2021/09/28 08:49:10;;;;;;;27.70;13.80;;;14.60;92.70;;;;;;5029048;28;20027;-64
2021/09/28 08:51:37;;;;;;;26.17;12.98;;;14.60;92.80;;;;;;5028837;28;20532;-63
2021/09/28 08:54:03;;;;;;;22.60;12.13;;;14.90;93.50;;;;;;5021255;28;20084;-64
2021/09/28 08:56:28;;;;;;;23.75;11.18;;;15.00;92.80;;;;;;5027430;28;20369;-64
2021/09/28 08:59:21;;;;;;;21.15;9.90;;;15.10;93.30;;;;;;5027292;28;20273;-65
2021/09/28 09:02:02;;;;;;;18.63;9.40;;;15.30;92.30;;;;;;5023374;28;20480;-64
2021/09/28 09:04:28;;;;;;;20.47;9.40;;;15.40;91.60;;;;;;5028671;28;20025;-64
2021/09/28 09:06:55;;;;;;;15.52;8.27;;;15.50;92.10;;;;;;5027001;28;20076;-65
2021/09/28 09:09:22;;;;;;;14.65;8.13;;;15.60;92.10;;;;;;4991831;28;1102680;-64
2021/09/28 09:11:50;;;;;;;18.67;7.00;;;16.00;92.00;;;;;;5024351;28;20049;-63
2021/09/28 09:14:23;;;;;;;9.30;6.38;;;15.90;90.60;;;;;;5022450;28;20423;-64
2021/09/28 09:16:55;;;;;;;13.95;6.75;;;16.00;90.00;;;;;;5026290;28;20484;-65
2021/09/28 09:19:27;;;;;;;18.48;6.28;;;16.10;90.40;;;;;;5017593;28;20055;-64
2021/09/28 09:21:58;;;;;;;11.27;5.63;;;16.30;91.20;;;;;;5021337;28;20025;-64
2021/09/28 09:24:45;;;;;;;12.13;5.68;;;16.50;90.50;;;;;;5022924;28;20147;-64
2021/09/28 09:27:15;;;;;;;9.93;5.53;;;16.60;89.50;;;;;;5022202;28;20129;-64
2021/09/28 09:29:42;;;;;;;11.13;5.05;;;16.60;88.80;;;;;;5025152;28;20033;-65
2021/09/28 09:32:08;;;;;;;11.80;4.13;;;16.60;87.90;;;;;;5019414;28;20041;-63
2021/09/28 09:34:34;;;;;;;12.18;4.55;;;16.80;88.20;;;;;;5020315;28;20060;-65
2021/09/28 09:37:06;;;;;;;8.52;3.88;;;16.80;86.80;;;;;;5023135;28;20057;-63
2021/09/28 09:39:49;;;;;;;8.80;3.65;;;16.60;84.90;;;;;;5024576;28;20487;-65
2021/09/28 09:42:15;;;;;;;7.28;3.60;;;16.80;86.60;;;;;;5024248;28;20056;-65
2021/09/28 09:44:41;;;;;;;9.48;3.35;;;17.00;85.60;;;;;;5029330;28;20672;-64
2021/09/28 09:47:24;;;;;;;9.20;3.72;;;17.00;85.60;;;;;;5027001;28;20040;-64
2021/09/28 09:49:50;;;;;;;6.25;3.33;;;17.50;86.10;;;;;;5024126;28;20781;-65
2021/09/28 09:52:15;;;;;;;9.25;3.50;;;17.30;83.40;;;;;;5020185;28;20025;-64
2021/09/28 09:54:43;;;;;;;11.60;3.90;;;17.20;83.60;;;;;;5034459;28;20075;-65
2021/09/28 09:57:11;;;;;;;8.90;3.10;;;17.10;82.20;;;;;;5024983;28;20476;-63
2021/09/28 09:59:38;;;;;;;8.95;2.78;;;17.30;84.10;;;;;;5032391;28;21529;-64
2021/09/28 10:02:05;;;;;;;8.38;3.15;;;17.30;83.00;;;;;;5020638;28;20534;-64
2021/09/28 10:04:31;;;;;;;8.80;3.22;;;17.30;83.00;;;;;;5025125;28;20530;-62
2021/09/28 10:07:01;;;;;;;10.75;3.50;;;17.30;82.50;;;;;;5019976;28;20217;-64
2021/09/28 10:09:47;;;;;;;9.80;3.20;;;17.40;83.00;;;;;;5023397;28;20112;-65
2021/09/28 10:12:13;;;;;;;6.47;2.95;;;17.50;80.70;;;;;;5018938;28;20040;-64
2021/09/28 10:14:44;;;;;;;10.35;3.60;;;17.70;82.70;;;;;;5020030;28;20576;-64
2021/09/28 10:17:31;;;;;;;11.20;4.15;;;17.60;83.70;;;;;;5019272;28;20051;-65
2021/09/28 10:20:02;;;;;;;6.80;3.20;;;17.70;81.70;;;;;;5019849;28;20484;-64
2021/09/28 10:22:37;;;;;;;;;;;17.70;81.40;;;;;;5015497;28;20037;-65
2021/09/28 10:27:47;;;;;;;10.63;3.47;;;18.20;81.50;;;;;;5021969;28;20083;-65
2021/09/28 10:30:31;;;;;;;5.75;2.97;;;18.50;81.40;;;;;;5022745;28;20025;-63
2021/09/28 10:32:58;;;;;;;5.57;2.55;;;18.10;79.60;;;;;;5023004;28;20047;-64
2021/09/28 10:35:24;;;;;;;10.40;3.22;;;17.80;80.60;;;;;;5023299;28;20099;-63
2021/09/28 10:38:02;;;;;;;11.00;3.03;;;17.80;81.80;;;;;;5022471;28;20034;-63
2021/09/28 10:40:30;;;;;;;5.90;2.20;;;18.10;78.60;;;;;;5033011;28;20026;-64
2021/09/28 10:43:02;;;;;;;8.07;2.85;;;18.00;77.30;;;;;;5024308;28;20675;-64
2021/09/28 10:45:28;;;;;;;8.20;2.22;;;18.00;78.40;;;;;;5023330;28;20227;-65
2021/09/28 10:48:29;;;;;;;6.60;2.10;;;18.10;78.80;;;;;;5026774;28;20307;-65
2021/09/28 10:51:10;;;;;;;4.32;1.73;;;18.10;76.50;;;;;;5019653;28;20053;-64
2021/09/28 10:53:37;;;;;;;7.70;1.48;;;17.80;76.30;;;;;;5024022;28;20455;-64
2021/09/28 10:56:14;;;;;;;5.38;1.05;;;18.00;76.70;;;;;;5019362;28;20506;-65
2021/09/28 10:58:56;;;;;;;5.80;1.50;;;18.50;77.30;;;;;;5020098;28;20033;-65
2021/09/28 11:01:25;;;;;;;6.68;1.50;;;18.80;72.40;;;;;;5016979;28;20515;-64
2021/09/28 11:03:55;;;;;;;2.67;1.10;;;19.10;74.30;;;;;;4974697;28;20045;-65
2021/09/28 11:06:55;;;;;;;6.97;1.50;;;19.50;70.80;;;;;;5015430;28;21440;-65
2021/09/28 11:09:25;;;;;;;4.57;1.33;;;19.60;69.60;;;;;;4996128;28;20049;-64
2021/09/28 11:11:54;;;;;;;7.27;1.37;;;19.80;72.60;;;;;;5022128;28;20114;-63
2021/09/28 11:14:22;;;;;;;9.32;1.65;;;19.70;67.60;;;;;;5021028;28;20029;-64
2021/09/28 11:16:53;;;;;;;11.23;1.80;;;20.00;70.80;;;;;;5020549;28;20060;-65
2021/09/28 11:19:20;;;;;;;5.32;1.20;;;19.50;70.70;;;;;;5025194;28;20038;-64
2021/09/28 11:21:47;;;;;;;5.28;1.50;;;19.30;69.30;;;;;;5021952;28;20021;-65
2021/09/28 11:24:18;;;;;;;5.22;1.40;;;18.90;70.50;;;;;;5015744;28;20433;-63
2021/09/28 11:26:44;;;;;;;7.88;1.20;;;19.00;72.20;;;;;;5015909;28;20026;-63
2021/09/28 11:29:21;;;;;;;6.47;1.58;;;19.30;69.60;;;;;;5011545;28;20388;-65
2021/09/28 11:31:48;;;;;;;3.72;1.10;;;19.00;70.30;;;;;;5017774;28;20433;-64
2021/09/28 11:34:14;;;;;;;4.90;1.17;;;19.30;69.10;;;;;;5027906;28;20290;-64
2021/09/28 11:36:41;;;;;;;8.30;1.20;;;19.90;68.40;;;;;;5017546;28;20029;-63
2021/09/28 11:39:14;;;;;;;4.28;0.80;;;20.00;68.30;;;;;;5022422;28;20040;-63
2021/09/28 11:41:42;;;;;;;4.75;1.17;;;20.50;64.70;;;;;;5023053;28;20488;-65
2021/09/28 11:44:08;;;;;;;7.30;1.55;;;19.50;67.30;;;;;;5032908;28;20515;-65
2021/09/28 11:46:35;;;;;;;4.07;1.05;;;18.90;68.10;;;;;;5014314;28;20030;-65
2021/09/28 11:49:05;;;;;;;3.15;0.95;;;19.10;71.50;;;;;;5024704;28;20029;-63
2021/09/28 11:51:35;;;;;;;5.53;1.25;;;19.70;69.10;;;;;;5019935;28;20030;-65
2021/09/28 11:54:05;;;;;;;5.38;1.33;;;20.10;67.40;;;;;;5023452;28;20057;-65
2021/09/28 11:56:33;;;;;;;6.55;0.93;;;20.50;66.40;;;;;;5025777;28;20450;-66
2021/09/28 11:59:00;;;;;;;3.72;1.05;;;20.00;64.40;;;;;;5014870;28;20096;-65
2021/09/28 12:01:26;;;;;;;3.83;1.20;;;19.60;66.60;;;;;;5021538;28;20056;-63
2021/09/28 12:07:03;;;;;;;5.28;1.00;;;20.20;64.50;;;;;;5023859;28;20626;-65
2021/09/28 12:09:34;;;;;;;3.33;1.05;;;20.50;64.50;;;;;;5021322;28;20033;-63
2021/09/28 12:12:07;;;;;;;6.80;1.38;;;20.50;63.80;;;;;;5024200;28;20029;-64
2021/09/28 12:14:35;;;;;;;7.00;1.60;;;20.90;63.40;;;;;;5026874;28;21581;-64
2021/09/28 12:17:21;;;;;;;3.83;0.90;;;21.10;64.50;;;;;;5022361;28;20471;-64
2021/09/28 12:19:53;;;;;;;4.32;1.02;;;20.70;63.60;;;;;;5028095;28;20029;-65
2021/09/28 12:22:30;;;;;;;5.28;1.00;;;21.20;63.50;;;;;;5023202;28;20044;-65
2021/09/28 12:24:57;;;;;;;3.72;0.95;;;21.00;61.90;;;;;;5036099;28;20072;-65
2021/09/28 12:27:24;;;;;;;5.50;1.30;;;20.20;64.80;;;;;;5025885;28;20030;-64
2021/09/28 12:29:51;;;;;;;6.63;1.50;;;19.60;68.10;;;;;;5021113;28;20037;-64
2021/09/28 12:32:22;;;;;;;7.35;1.50;;;19.30;67.80;;;;;;5026317;28;20246;-64
2021/09/28 12:34:56;;;;;;;4.90;1.10;;;19.10;69.20;;;;;;5022830;28;20055;-63
2021/09/28 12:37:23;;;;;;;5.63;1.33;;;19.40;70.80;;;;;;5024610;28;20033;-65
2021/09/28 12:40:06;;;;;;;6.40;1.30;;;19.40;69.70;;;;;;5029582;28;20502;-64
2021/09/28 12:42:37;;;;;;;7.30;1.17;;;19.50;69.70;;;;;;5023735;28;20048;-65
2021/09/28 12:45:08;;;;;;;4.20;1.05;;;20.00;66.30;;;;;;5027088;28;20025;-63
2021/09/28 12:47:59;;;;;;;4.13;0.95;;;20.10;64.90;;;;;;5020610;28;20033;-65